A1 LECU-LECU
Flight info
| Callsign | A1 |
|---|---|
| Flight time | 0h 1m |
| Altitude | 6000 |
| Route | VFR |
| Aircraft | H47/L-SDE/L |
Departure
| Time | 2026-05-01 12:09 |
|---|---|
| Airport | Madrid-Cuatro Vientos Airport (LECU) |
Arrival
| Time | 2026-05-01 12:11 |
|---|---|
| Airport | Madrid-Cuatro Vientos Airport (LECU) |
| Time | Latitude | Longitude | Altitude | Speed | Heading |
|---|---|---|---|---|---|
| 2026-05-01 11:58 | 40.36884 | -3.78105 | 2266 ft | 0 kts | 272° |
| 2026-05-01 12:04 | 40.36897 | -3.78222 | 2343 ft | 36 kts | 242° |
| 2026-05-01 12:04 | 40.36756 | -3.78697 | 2453 ft | 73 kts | 258° |
| 2026-05-01 12:04 | 40.36957 | -3.79412 | 2557 ft | 95 kts | 309° |
| 2026-05-01 12:05 | 40.37547 | -3.79762 | 2655 ft | 99 kts | 358° |
| 2026-05-01 12:05 | 40.38827 | -3.78925 | 2647 ft | 114 kts | 36° |
| 2026-05-01 12:05 | 40.39490 | -3.78272 | 2535 ft | 125 kts | 38° |
| 2026-05-01 12:06 | 40.40199 | -3.77542 | 2399 ft | 129 kts | 41° |
| 2026-05-01 12:06 | 40.40870 | -3.76766 | 2323 ft | 128 kts | 48° |
| 2026-05-01 12:06 | 40.41366 | -3.75837 | 2315 ft | 120 kts | 65° |
| 2026-05-01 12:06 | 40.41715 | -3.74891 | 2391 ft | 114 kts | 67° |
| 2026-05-01 12:07 | 40.42007 | -3.73908 | 2301 ft | 117 kts | 77° |
| 2026-05-01 12:07 | 40.42104 | -3.72873 | 2309 ft | 117 kts | 89° |
| 2026-05-01 12:07 | 40.41996 | -3.71660 | 2296 ft | 109 kts | 104° |
| 2026-05-01 12:07 | 40.41846 | -3.70790 | 2404 ft | 92 kts | 106° |
| 2026-05-01 12:08 | 40.41835 | -3.69975 | 2490 ft | 91 kts | 79° |
| 2026-05-01 12:08 | 40.42115 | -3.69180 | 2471 ft | 102 kts | 56° |
| 2026-05-01 12:08 | 40.42746 | -3.68740 | 2577 ft | 111 kts | 12° |
| 2026-05-01 12:08 | 40.43542 | -3.68683 | 2647 ft | 116 kts | 360° |
| 2026-05-01 12:09 | 40.44312 | -3.68855 | 2741 ft | 112 kts | 338° |
| 2026-05-01 12:09 | 40.45060 | -3.69173 | 2844 ft | 113 kts | 340° |
| 2026-05-01 12:09 | 40.45795 | -3.69531 | 2978 ft | 112 kts | 353° |
| 2026-05-01 12:09 | 40.46592 | -3.69453 | 2998 ft | 122 kts | 12° |
| 2026-05-01 12:10 | 40.47400 | -3.69107 | 3154 ft | 116 kts | 30° |
| 2026-05-01 12:10 | 40.47545 | -3.67635 | 3300 ft | 128 kts | 169° |
| 2026-05-01 12:10 | 40.46661 | -3.68004 | 2965 ft | 136 kts | 224° |
| 2026-05-01 12:11 | 40.46734 | -3.68997 | 2866 ft | 23 kts | 123° |
| 2026-05-01 12:11 | 40.46692 | -3.68998 | 2810 ft | 9 kts | 256° |
| 2026-05-01 12:11 | 40.46718 | -3.69062 | 2851 ft | 11 kts | 34° |
| 2026-05-01 12:12 | 40.46731 | -3.69018 | 2842 ft | 5 kts | 83° |
| 2026-05-01 12:12 | 40.46719 | -3.69004 | 2824 ft | 3 kts | 85° |
| 2026-05-01 12:12 | 40.46702 | -3.68988 | 2784 ft | 2 kts | 95° |
| 2026-05-01 12:12 | 40.46697 | -3.68981 | 2772 ft | 0 kts | 94° |
| 2026-05-01 12:14 | 40.46698 | -3.68973 | 2791 ft | 4 kts | 110° |
| 2026-05-01 12:15 | 40.46638 | -3.68990 | 2975 ft | 21 kts | 188° |
| 2026-05-01 12:15 | 40.46471 | -3.69460 | 2993 ft | 83 kts | 242° |
| 2026-05-01 12:15 | 40.46282 | -3.70265 | 3012 ft | 102 kts | 249° |
| 2026-05-01 12:15 | 40.46129 | -3.71245 | 2944 ft | 118 kts | 261° |
| 2026-05-01 12:16 | 40.46053 | -3.72374 | 2764 ft | 130 kts | 258° |
| 2026-05-01 12:16 | 40.45579 | -3.73392 | 2532 ft | 136 kts | 218° |
| 2026-05-01 12:16 | 40.44720 | -3.73954 | 2241 ft | 141 kts | 193° |
| 2026-05-01 12:16 | 40.43773 | -3.73986 | 2130 ft | 128 kts | 170° |
| 2026-05-01 12:17 | 40.42941 | -3.73753 | 2166 ft | 121 kts | 163° |
| 2026-05-01 12:17 | 40.42214 | -3.73224 | 2186 ft | 120 kts | 137° |
| 2026-05-01 12:17 | 40.42044 | -3.72296 | 2331 ft | 113 kts | 39° |
| 2026-05-01 12:17 | 40.42716 | -3.72650 | 2145 ft | 130 kts | 288° |
| 2026-05-01 12:18 | 40.43188 | -3.73659 | 2262 ft | 127 kts | 316° |
| 2026-05-01 12:18 | 40.43929 | -3.74116 | 2342 ft | 116 kts | 336° |
| 2026-05-01 12:18 | 40.44715 | -3.74416 | 2281 ft | 123 kts | 338° |
| 2026-05-01 12:18 | 40.45532 | -3.74769 | 2177 ft | 126 kts | 335° |
| 2026-05-01 12:19 | 40.46317 | -3.75222 | 2221 ft | 127 kts | 330° |
| 2026-05-01 12:19 | 40.47163 | -3.75617 | 2362 ft | 123 kts | 343° |
| 2026-05-01 12:19 | 40.48000 | -3.75959 | 2558 ft | 132 kts | 330° |
| 2026-05-01 12:19 | 40.48705 | -3.76739 | 2680 ft | 139 kts | 304° |
| 2026-05-01 12:20 | 40.49109 | -3.77925 | 2566 ft | 151 kts | 282° |
| 2026-05-01 12:20 | 40.49302 | -3.79162 | 2907 ft | 124 kts | 253° |
| 2026-05-01 12:20 | 40.48685 | -3.79587 | 2651 ft | 122 kts | 153° |
| 2026-05-01 12:20 | 40.48110 | -3.78687 | 2190 ft | 134 kts | 123° |
| 2026-05-01 12:21 | 40.47623 | -3.77801 | 2231 ft | 101 kts | 136° |
| 2026-05-01 12:21 | 40.47399 | -3.77010 | 2248 ft | 102 kts | 89° |
| 2026-05-01 12:21 | 40.47502 | -3.76104 | 2408 ft | 94 kts | 60° |
| 2026-05-01 12:21 | 40.48088 | -3.75631 | 2530 ft | 105 kts | 2° |
| 2026-05-01 12:22 | 40.48829 | -3.75826 | 2595 ft | 113 kts | 320° |
| 2026-05-01 12:22 | 40.49325 | -3.76072 | 2650 ft | 120 kts | 352° |
| 2026-05-01 12:22 | 40.50058 | -3.75568 | 2551 ft | 131 kts | 55° |
| 2026-05-01 12:22 | 40.50366 | -3.74433 | 2530 ft | 134 kts | 83° |
| 2026-05-01 12:23 | 40.50429 | -3.73192 | 2497 ft | 137 kts | 90° |
| 2026-05-01 12:23 | 40.50389 | -3.71950 | 2522 ft | 132 kts | 102° |
| 2026-05-01 12:23 | 40.50118 | -3.70839 | 2646 ft | 125 kts | 116° |
| 2026-05-01 12:23 | 40.49578 | -3.69915 | 2558 ft | 133 kts | 140° |
| 2026-05-01 12:24 | 40.48837 | -3.69238 | 2586 ft | 128 kts | 148° |
| 2026-05-01 12:24 | 40.48105 | -3.68581 | 2646 ft | 130 kts | 152° |
| 2026-05-01 12:24 | 40.47244 | -3.68243 | 2705 ft | 124 kts | 173° |
| 2026-05-01 12:24 | 40.46372 | -3.68237 | 2782 ft | 128 kts | 187° |
| 2026-05-01 12:25 | 40.45475 | -3.68390 | 2757 ft | 133 kts | 189° |
| 2026-05-01 12:25 | 40.43642 | -3.68398 | 2692 ft | 130 kts | 163° |
| 2026-05-01 12:25 | 40.42848 | -3.67819 | 2488 ft | 129 kts | 147° |
| 2026-05-01 12:26 | 40.42228 | -3.67000 | 2371 ft | 128 kts | 123° |
| 2026-05-01 12:26 | 40.41731 | -3.65639 | 2435 ft | 94 kts | 255° |
| 2026-05-01 12:26 | 40.42037 | -3.66183 | 2353 ft | 73 kts | 360° |
| 2026-05-01 12:27 | 40.42499 | -3.65919 | 2267 ft | 63 kts | 71° |
| 2026-05-01 12:27 | 40.41786 | -3.65888 | 2232 ft | 103 kts | 208° |
| 2026-05-01 12:28 | 40.40309 | -3.66761 | 2320 ft | 122 kts | 199° |
| 2026-05-01 12:28 | 40.39582 | -3.67228 | 2515 ft | 118 kts | 210° |
| 2026-05-01 12:28 | 40.37979 | -3.68022 | 2500 ft | 132 kts | 185° |
| 2026-05-01 12:29 | 40.37042 | -3.67958 | 2453 ft | 130 kts | 173° |
| 2026-05-01 12:29 | 40.36223 | -3.67735 | 2688 ft | 120 kts | 158° |
| 2026-05-01 12:29 | 40.34735 | -3.66321 | 2478 ft | 141 kts | 142° |
| 2026-05-01 12:30 | 40.33184 | -3.65244 | 2526 ft | 122 kts | 229° |
| 2026-05-01 12:30 | 40.33714 | -3.66155 | 2067 ft | 154 kts | 336° |
| 2026-05-01 12:30 | 40.34750 | -3.66497 | 2053 ft | 149 kts | 356° |
| 2026-05-01 12:31 | 40.35658 | -3.66492 | 2166 ft | 119 kts | 352° |
| 2026-05-01 12:31 | 40.36386 | -3.66566 | 2193 ft | 94 kts | 9° |
| 2026-05-01 12:31 | 40.36889 | -3.66302 | 2114 ft | 71 kts | 87° |
| 2026-05-01 12:31 | 40.36733 | -3.66201 | 2079 ft | 36 kts | 261° |
| 2026-05-01 12:32 | 40.36752 | -3.66414 | 1983 ft | 6 kts | 194° |
| 2026-05-01 12:32 | 40.36742 | -3.66410 | 1965 ft | 0 kts | 99° |